sensor_id;sensor_type;location;lat;lon;timestamp;P1;durP1;ratioP1;P2;durP2;ratioP2
40967;SDS011;57377;45.130;6.038;2023-02-28T00:00:20;17.88;;;9.75;;
40967;SDS011;57377;45.130;6.038;2023-02-28T00:02:46;14.13;;;8.32;;
40967;SDS011;57377;45.130;6.038;2023-02-28T00:05:13;13.60;;;7.97;;
40967;SDS011;57377;45.130;6.038;2023-02-28T00:07:40;13.60;;;7.90;;
40967;SDS011;57377;45.130;6.038;2023-02-28T00:10:08;14.20;;;8.27;;
40967;SDS011;57377;45.130;6.038;2023-02-28T00:12:35;15.00;;;7.80;;
40967;SDS011;57377;45.130;6.038;2023-02-28T00:15:02;13.80;;;7.57;;
40967;SDS011;57377;45.130;6.038;2023-02-28T00:17:30;17.02;;;8.90;;
40967;SDS011;57377;45.130;6.038;2023-02-28T00:19:56;15.65;;;8.18;;
40967;SDS011;57377;45.130;6.038;2023-02-28T00:22:21;18.08;;;8.95;;
40967;SDS011;57377;45.130;6.038;2023-02-28T00:24:47;21.13;;;8.65;;
40967;SDS011;57377;45.130;6.038;2023-02-28T00:27:13;19.25;;;9.00;;
40967;SDS011;57377;45.130;6.038;2023-02-28T00:29:39;17.17;;;9.18;;
40967;SDS011;57377;45.130;6.038;2023-02-28T00:32:05;16.45;;;8.40;;
40967;SDS011;57377;45.130;6.038;2023-02-28T00:34:31;20.05;;;9.48;;
40967;SDS011;57377;45.130;6.038;2023-02-28T00:37:03;17.20;;;8.25;;
40967;SDS011;57377;45.130;6.038;2023-02-28T00:39:35;16.10;;;9.38;;
40967;SDS011;57377;45.130;6.038;2023-02-28T00:42:02;21.10;;;10.13;;
40967;SDS011;57377;45.130;6.038;2023-02-28T00:44:28;16.17;;;9.03;;
40967;SDS011;57377;45.130;6.038;2023-02-28T00:46:54;17.92;;;9.20;;
40967;SDS011;57377;45.130;6.038;2023-02-28T00:49:21;15.27;;;8.57;;
40967;SDS011;57377;45.130;6.038;2023-02-28T00:51:47;15.05;;;7.63;;
40967;SDS011;57377;45.130;6.038;2023-02-28T00:54:12;23.38;;;9.13;;
40967;SDS011;57377;45.130;6.038;2023-02-28T00:56:38;14.23;;;8.00;;
40967;SDS011;57377;45.130;6.038;2023-02-28T00:59:03;14.48;;;8.18;;
40967;SDS011;57377;45.130;6.038;2023-02-28T01:01:28;17.15;;;8.65;;
40967;SDS011;57377;45.130;6.038;2023-02-28T01:03:54;14.75;;;8.02;;
40967;SDS011;57377;45.130;6.038;2023-02-28T01:06:19;15.65;;;8.35;;
40967;SDS011;57377;45.130;6.038;2023-02-28T01:08:45;18.25;;;9.00;;
40967;SDS011;57377;45.130;6.038;2023-02-28T01:11:11;16.60;;;9.00;;
40967;SDS011;57377;45.130;6.038;2023-02-28T01:13:39;17.10;;;8.43;;
40967;SDS011;57377;45.130;6.038;2023-02-28T01:16:05;16.10;;;8.20;;
40967;SDS011;57377;45.130;6.038;2023-02-28T01:18:31;17.95;;;9.18;;
40967;SDS011;57377;45.130;6.038;2023-02-28T01:20:57;20.98;;;9.02;;
40967;SDS011;57377;45.130;6.038;2023-02-28T01:23:22;19.42;;;9.57;;
40967;SDS011;57377;45.130;6.038;2023-02-28T01:25:49;18.97;;;9.30;;
40967;SDS011;57377;45.130;6.038;2023-02-28T01:28:15;25.88;;;10.98;;
40967;SDS011;57377;45.130;6.038;2023-02-28T01:30:40;21.88;;;10.32;;
40967;SDS011;57377;45.130;6.038;2023-02-28T01:33:06;20.58;;;10.00;;
40967;SDS011;57377;45.130;6.038;2023-02-28T01:35:32;19.98;;;9.55;;
40967;SDS011;57377;45.130;6.038;2023-02-28T01:38:01;19.13;;;9.43;;
40967;SDS011;57377;45.130;6.038;2023-02-28T01:40:27;16.42;;;8.90;;
40967;SDS011;57377;45.130;6.038;2023-02-28T01:42:52;17.00;;;9.43;;
40967;SDS011;57377;45.130;6.038;2023-02-28T01:45:19;38.33;;;16.15;;
40967;SDS011;57377;45.130;6.038;2023-02-28T01:47:54;21.48;;;10.25;;
40967;SDS011;57377;45.130;6.038;2023-02-28T01:50:26;26.98;;;13.05;;
40967;SDS011;57377;45.130;6.038;2023-02-28T01:52:55;19.50;;;10.27;;
40967;SDS011;57377;45.130;6.038;2023-02-28T01:55:24;21.20;;;11.23;;
40967;SDS011;57377;45.130;6.038;2023-02-28T01:57:55;21.75;;;11.18;;
40967;SDS011;57377;45.130;6.038;2023-02-28T02:00:23;21.67;;;10.55;;
40967;SDS011;57377;45.130;6.038;2023-02-28T02:02:53;25.85;;;13.23;;
40967;SDS011;57377;45.130;6.038;2023-02-28T02:05:30;26.42;;;12.32;;
40967;SDS011;57377;45.130;6.038;2023-02-28T02:08:04;20.08;;;11.85;;
40967;SDS011;57377;45.130;6.038;2023-02-28T02:10:50;18.90;;;9.95;;
40967;SDS011;57377;45.130;6.038;2023-02-28T02:19:40;18.95;;;9.30;;
40967;SDS011;57377;45.130;6.038;2023-02-28T02:35:54;16.33;;;8.75;;
40967;SDS011;57377;45.130;6.038;2023-02-28T02:38:31;20.10;;;10.18;;
40967;SDS011;57377;45.130;6.038;2023-02-28T02:41:06;26.80;;;11.02;;
40967;SDS011;57377;45.130;6.038;2023-02-28T02:43:53;21.55;;;9.63;;
40967;SDS011;57377;45.130;6.038;2023-02-28T02:46:25;17.25;;;8.82;;
40967;SDS011;57377;45.130;6.038;2023-02-28T02:48:54;20.52;;;8.63;;
40967;SDS011;57377;45.130;6.038;2023-02-28T02:51:22;14.77;;;7.93;;
40967;SDS011;57377;45.130;6.038;2023-02-28T02:53:50;23.67;;;9.73;;
40967;SDS011;57377;45.130;6.038;2023-02-28T02:56:21;23.70;;;11.73;;
40967;SDS011;57377;45.130;6.038;2023-02-28T02:58:49;21.77;;;11.43;;
40967;SDS011;57377;45.130;6.038;2023-02-28T03:01:19;17.00;;;9.70;;
40967;SDS011;57377;45.130;6.038;2023-02-28T03:03:55;22.83;;;10.90;;
40967;SDS011;57377;45.130;6.038;2023-02-28T03:06:38;25.45;;;10.93;;
40967;SDS011;57377;45.130;6.038;2023-02-28T03:09:03;22.20;;;10.55;;
40967;SDS011;57377;45.130;6.038;2023-02-28T03:11:29;20.98;;;10.10;;
40967;SDS011;57377;45.130;6.038;2023-02-28T03:25:12;19.58;;;10.25;;
40967;SDS011;57377;45.130;6.038;2023-02-28T03:27:53;30.05;;;11.93;;
40967;SDS011;57377;45.130;6.038;2023-02-28T03:30:27;21.08;;;9.30;;
40967;SDS011;57377;45.130;6.038;2023-02-28T03:33:41;17.63;;;8.95;;
40967;SDS011;57377;45.130;6.038;2023-02-28T03:38:36;31.98;;;12.45;;
40967;SDS011;57377;45.130;6.038;2023-02-28T03:43:49;28.02;;;12.10;;
40967;SDS011;57377;45.130;6.038;2023-02-28T03:46:19;25.00;;;11.23;;
40967;SDS011;57377;45.130;6.038;2023-02-28T03:48:51;18.60;;;9.80;;
40967;SDS011;57377;45.130;6.038;2023-02-28T03:51:22;21.70;;;11.00;;
40967;SDS011;57377;45.130;6.038;2023-02-28T03:53:52;25.95;;;12.10;;
40967;SDS011;57377;45.130;6.038;2023-02-28T03:56:27;25.85;;;12.40;;
40967;SDS011;57377;45.130;6.038;2023-02-28T03:59:00;26.95;;;13.15;;
40967;SDS011;57377;45.130;6.038;2023-02-28T04:01:38;24.50;;;12.50;;
40967;SDS011;57377;45.130;6.038;2023-02-28T04:04:06;21.50;;;11.98;;
40967;SDS011;57377;45.130;6.038;2023-02-28T04:06:33;22.87;;;11.40;;
40967;SDS011;57377;45.130;6.038;2023-02-28T04:08:59;18.55;;;10.45;;
40967;SDS011;57377;45.130;6.038;2023-02-28T04:14:00;27.73;;;12.82;;
40967;SDS011;57377;45.130;6.038;2023-02-28T04:16:30;24.63;;;12.48;;
40967;SDS011;57377;45.130;6.038;2023-02-28T04:18:56;20.58;;;11.77;;
40967;SDS011;57377;45.130;6.038;2023-02-28T04:21:27;25.55;;;11.65;;
40967;SDS011;57377;45.130;6.038;2023-02-28T04:23:54;22.65;;;11.48;;
40967;SDS011;57377;45.130;6.038;2023-02-28T04:26:19;19.55;;;11.05;;
40967;SDS011;57377;45.130;6.038;2023-02-28T04:28:45;22.08;;;11.07;;
40967;SDS011;57377;45.130;6.038;2023-02-28T04:31:10;23.90;;;12.18;;
40967;SDS011;57377;45.130;6.038;2023-02-28T04:33:36;27.95;;;13.77;;
40967;SDS011;57377;45.130;6.038;2023-02-28T04:36:02;33.83;;;13.13;;
40967;SDS011;57377;45.130;6.038;2023-02-28T04:38:31;24.15;;;11.82;;
40967;SDS011;57377;45.130;6.038;2023-02-28T04:40:58;20.35;;;11.57;;
40967;SDS011;57377;45.130;6.038;2023-02-28T04:43:25;22.95;;;10.95;;
40967;SDS011;57377;45.130;6.038;2023-02-28T04:45:55;22.65;;;11.27;;
40967;SDS011;57377;45.130;6.038;2023-02-28T04:48:25;22.85;;;11.48;;
40967;SDS011;57377;45.130;6.038;2023-02-28T04:50:52;20.73;;;11.07;;
40967;SDS011;57377;45.130;6.038;2023-02-28T04:53:18;21.45;;;10.80;;
40967;SDS011;57377;45.130;6.038;2023-02-28T04:55:44;19.73;;;9.93;;
40967;SDS011;57377;45.130;6.038;2023-02-28T04:58:10;20.98;;;10.27;;
40967;SDS011;57377;45.130;6.038;2023-02-28T05:00:35;23.25;;;10.98;;
40967;SDS011;57377;45.130;6.038;2023-02-28T05:03:01;22.98;;;11.40;;
40967;SDS011;57377;45.130;6.038;2023-02-28T05:05:26;20.98;;;11.18;;
40967;SDS011;57377;45.130;6.038;2023-02-28T05:07:52;20.98;;;11.23;;
40967;SDS011;57377;45.130;6.038;2023-02-28T05:10:18;25.55;;;12.13;;
40967;SDS011;57377;45.130;6.038;2023-02-28T05:12:44;25.08;;;12.43;;
40967;SDS011;57377;45.130;6.038;2023-02-28T05:15:12;23.67;;;12.68;;
40967;SDS011;57377;45.130;6.038;2023-02-28T05:17:38;23.67;;;11.43;;
40967;SDS011;57377;45.130;6.038;2023-02-28T05:20:04;27.00;;;12.23;;
40967;SDS011;57377;45.130;6.038;2023-02-28T05:22:30;26.50;;;13.45;;
40967;SDS011;57377;45.130;6.038;2023-02-28T05:24:56;20.17;;;11.43;;
40967;SDS011;57377;45.130;6.038;2023-02-28T05:27:21;23.73;;;11.82;;
40967;SDS011;57377;45.130;6.038;2023-02-28T05:29:47;26.42;;;12.23;;
40967;SDS011;57377;45.130;6.038;2023-02-28T05:32:12;23.52;;;12.80;;
40967;SDS011;57377;45.130;6.038;2023-02-28T05:34:38;19.55;;;11.13;;
40967;SDS011;57377;45.130;6.038;2023-02-28T05:37:04;23.13;;;11.13;;
40967;SDS011;57377;45.130;6.038;2023-02-28T05:39:30;25.37;;;12.43;;
40967;SDS011;57377;45.130;6.038;2023-02-28T05:41:56;25.98;;;12.68;;
40967;SDS011;57377;45.130;6.038;2023-02-28T05:44:22;22.70;;;12.43;;
40967;SDS011;57377;45.130;6.038;2023-02-28T05:46:47;30.92;;;12.57;;
40967;SDS011;57377;45.130;6.038;2023-02-28T05:49:13;24.10;;;13.27;;
40967;SDS011;57377;45.130;6.038;2023-02-28T05:51:41;26.02;;;14.25;;
40967;SDS011;57377;45.130;6.038;2023-02-28T05:54:06;23.25;;;13.07;;
40967;SDS011;57377;45.130;6.038;2023-02-28T05:56:32;25.40;;;12.98;;
40967;SDS011;57377;45.130;6.038;2023-02-28T05:59:00;23.83;;;13.00;;
40967;SDS011;57377;45.130;6.038;2023-02-28T06:03:58;20.35;;;11.73;;
40967;SDS011;57377;45.130;6.038;2023-02-28T06:08:50;20.67;;;10.52;;
40967;SDS011;57377;45.130;6.038;2023-02-28T06:11:15;24.40;;;12.95;;
40967;SDS011;57377;45.130;6.038;2023-02-28T06:13:41;29.73;;;13.18;;
40967;SDS011;57377;45.130;6.038;2023-02-28T06:16:07;37.00;;;15.20;;
40967;SDS011;57377;45.130;6.038;2023-02-28T06:18:35;21.83;;;11.02;;
40967;SDS011;57377;45.130;6.038;2023-02-28T06:21:01;27.02;;;12.95;;
40967;SDS011;57377;45.130;6.038;2023-02-28T06:23:26;31.88;;;14.70;;
40967;SDS011;57377;45.130;6.038;2023-02-28T06:25:52;36.75;;;15.90;;
40967;SDS011;57377;45.130;6.038;2023-02-28T06:28:18;40.50;;;19.27;;
40967;SDS011;57377;45.130;6.038;2023-02-28T06:30:44;44.42;;;22.55;;
40967;SDS011;57377;45.130;6.038;2023-02-28T06:33:09;77.40;;;39.15;;
40967;SDS011;57377;45.130;6.038;2023-02-28T06:35:34;51.33;;;28.40;;
40967;SDS011;57377;45.130;6.038;2023-02-28T06:38:00;77.40;;;38.28;;
40967;SDS011;57377;45.130;6.038;2023-02-28T06:40:28;43.55;;;22.33;;
40967;SDS011;57377;45.130;6.038;2023-02-28T06:42:56;28.35;;;13.32;;
40967;SDS011;57377;45.130;6.038;2023-02-28T06:45:22;30.80;;;14.15;;
40967;SDS011;57377;45.130;6.038;2023-02-28T06:47:47;22.35;;;12.50;;
40967;SDS011;57377;45.130;6.038;2023-02-28T06:50:17;25.00;;;12.85;;
40967;SDS011;57377;45.130;6.038;2023-02-28T06:52:44;23.63;;;12.70;;
40967;SDS011;57377;45.130;6.038;2023-02-28T06:55:10;23.75;;;12.27;;
40967;SDS011;57377;45.130;6.038;2023-02-28T06:57:35;24.80;;;12.18;;
40967;SDS011;57377;45.130;6.038;2023-02-28T07:00:02;26.00;;;13.45;;
40967;SDS011;57377;45.130;6.038;2023-02-28T07:02:32;27.38;;;12.93;;
40967;SDS011;57377;45.130;6.038;2023-02-28T07:04:57;28.23;;;13.73;;
40967;SDS011;57377;45.130;6.038;2023-02-28T07:07:23;33.80;;;16.25;;
40967;SDS011;57377;45.130;6.038;2023-02-28T07:09:49;70.65;;;24.10;;
40967;SDS011;57377;45.130;6.038;2023-02-28T07:12:14;82.88;;;26.95;;
40967;SDS011;57377;45.130;6.038;2023-02-28T07:14:40;47.70;;;17.20;;
40967;SDS011;57377;45.130;6.038;2023-02-28T07:17:10;39.15;;;14.55;;
40967;SDS011;57377;45.130;6.038;2023-02-28T07:19:37;30.02;;;13.98;;
40967;SDS011;57377;45.130;6.038;2023-02-28T07:22:03;89.57;;;36.83;;
40967;SDS011;57377;45.130;6.038;2023-02-28T07:24:28;87.70;;;36.80;;
40967;SDS011;57377;45.130;6.038;2023-02-28T07:26:54;32.45;;;16.30;;
40967;SDS011;57377;45.130;6.038;2023-02-28T07:29:20;42.78;;;19.90;;
40967;SDS011;57377;45.130;6.038;2023-02-28T07:31:45;28.17;;;14.27;;
40967;SDS011;57377;45.130;6.038;2023-02-28T07:34:11;30.80;;;15.63;;
40967;SDS011;57377;45.130;6.038;2023-02-28T07:36:37;48.90;;;25.90;;
40967;SDS011;57377;45.130;6.038;2023-02-28T07:39:03;34.33;;;18.98;;
40967;SDS011;57377;45.130;6.038;2023-02-28T07:41:29;30.77;;;15.32;;
40967;SDS011;57377;45.130;6.038;2023-02-28T07:43:57;47.25;;;23.55;;
40967;SDS011;57377;45.130;6.038;2023-02-28T07:46:24;41.25;;;19.83;;
40967;SDS011;57377;45.130;6.038;2023-02-28T07:48:51;43.17;;;22.38;;
40967;SDS011;57377;45.130;6.038;2023-02-28T07:51:17;47.72;;;24.85;;
40967;SDS011;57377;45.130;6.038;2023-02-28T07:53:43;29.27;;;16.02;;
40967;SDS011;57377;45.130;6.038;2023-02-28T07:56:09;48.88;;;22.38;;
40967;SDS011;57377;45.130;6.038;2023-02-28T07:58:35;42.03;;;20.58;;
40967;SDS011;57377;45.130;6.038;2023-02-28T08:01:05;37.17;;;18.98;;
40967;SDS011;57377;45.130;6.038;2023-02-28T08:03:36;29.75;;;16.02;;
40967;SDS011;57377;45.130;6.038;2023-02-28T08:06:05;33.85;;;16.75;;
40967;SDS011;57377;45.130;6.038;2023-02-28T08:08:37;32.55;;;17.10;;
40967;SDS011;57377;45.130;6.038;2023-02-28T08:11:09;30.33;;;15.65;;
40967;SDS011;57377;45.130;6.038;2023-02-28T08:13:56;31.10;;;15.20;;
40967;SDS011;57377;45.130;6.038;2023-02-28T08:16:35;37.55;;;15.27;;
40967;SDS011;57377;45.130;6.038;2023-02-28T08:19:25;26.17;;;14.05;;
40967;SDS011;57377;45.130;6.038;2023-02-28T08:22:52;27.08;;;14.68;;
40967;SDS011;57377;45.130;6.038;2023-02-28T08:25:41;30.30;;;14.77;;
40967;SDS011;57377;45.130;6.038;2023-02-28T08:29:04;30.27;;;13.32;;
40967;SDS011;57377;45.130;6.038;2023-02-28T08:32:06;26.60;;;13.10;;
40967;SDS011;57377;45.130;6.038;2023-02-28T08:45:41;35.80;;;17.55;;
40967;SDS011;57377;45.130;6.038;2023-02-28T08:51:22;32.53;;;16.50;;
40967;SDS011;57377;45.130;6.038;2023-02-28T08:54:06;37.97;;;20.10;;
40967;SDS011;57377;45.130;6.038;2023-02-28T08:57:34;33.05;;;17.70;;
40967;SDS011;57377;45.130;6.038;2023-02-28T09:00:29;30.35;;;16.45;;
40967;SDS011;57377;45.130;6.038;2023-02-28T09:03:00;30.38;;;15.98;;
40967;SDS011;57377;45.130;6.038;2023-02-28T09:14:14;25.95;;;15.38;;
40967;SDS011;57377;45.130;6.038;2023-02-28T09:16:55;22.90;;;14.98;;
40967;SDS011;57377;45.130;6.038;2023-02-28T09:22:46;23.20;;;14.55;;
40967;SDS011;57377;45.130;6.038;2023-02-28T09:25:11;28.00;;;16.08;;
40967;SDS011;57377;45.130;6.038;2023-02-28T09:27:37;24.13;;;14.75;;
40967;SDS011;57377;45.130;6.038;2023-02-28T09:30:03;24.42;;;15.48;;
40967;SDS011;57377;45.130;6.038;2023-02-28T09:32:28;25.75;;;16.17;;
40967;SDS011;57377;45.130;6.038;2023-02-28T09:34:54;28.83;;;17.05;;
40967;SDS011;57377;45.130;6.038;2023-02-28T09:37:19;26.90;;;14.90;;
40967;SDS011;57377;45.130;6.038;2023-02-28T09:39:45;30.42;;;17.45;;
40967;SDS011;57377;45.130;6.038;2023-02-28T09:42:29;32.20;;;17.70;;
40967;SDS011;57377;45.130;6.038;2023-02-28T09:44:57;35.28;;;16.70;;
40967;SDS011;57377;45.130;6.038;2023-02-28T09:47:27;33.10;;;17.98;;
40967;SDS011;57377;45.130;6.038;2023-02-28T09:49:59;30.08;;;17.08;;
40967;SDS011;57377;45.130;6.038;2023-02-28T09:52:32;26.30;;;16.23;;
40967;SDS011;57377;45.130;6.038;2023-02-28T09:55:01;36.70;;;17.30;;
40967;SDS011;57377;45.130;6.038;2023-02-28T09:58:05;28.92;;;17.08;;
40967;SDS011;57377;45.130;6.038;2023-02-28T10:00:49;38.08;;;18.55;;
40967;SDS011;57377;45.130;6.038;2023-02-28T10:03:35;36.13;;;18.30;;
40967;SDS011;57377;45.130;6.038;2023-02-28T10:06:16;33.00;;;18.23;;
40967;SDS011;57377;45.130;6.038;2023-02-28T10:09:30;33.80;;;19.20;;
40967;SDS011;57377;45.130;6.038;2023-02-28T10:11:38;33.08;;;19.13;;
40967;SDS011;57377;45.130;6.038;2023-02-28T10:14:12;33.95;;;17.83;;
40967;SDS011;57377;45.130;6.038;2023-02-28T10:21:57;25.52;;;15.77;;
40967;SDS011;57377;45.130;6.038;2023-02-28T10:27:10;30.30;;;16.85;;
40967;SDS011;57377;45.130;6.038;2023-02-28T10:30:00;34.85;;;16.52;;
40967;SDS011;57377;45.130;6.038;2023-02-28T10:32:30;29.05;;;17.15;;
40967;SDS011;57377;45.130;6.038;2023-02-28T10:37:40;34.00;;;17.48;;
40967;SDS011;57377;45.130;6.038;2023-02-28T10:43:04;32.88;;;17.58;;
40967;SDS011;57377;45.130;6.038;2023-02-28T10:45:31;35.30;;;17.27;;
40967;SDS011;57377;45.130;6.038;2023-02-28T10:56:35;33.53;;;17.83;;
40967;SDS011;57377;45.130;6.038;2023-02-28T11:01:43;31.50;;;16.77;;
40967;SDS011;57377;45.130;6.038;2023-02-28T11:04:17;34.53;;;16.60;;
40967;SDS011;57377;45.130;6.038;2023-02-28T11:06:58;30.55;;;16.27;;
40967;SDS011;57377;45.130;6.038;2023-02-28T11:11:57;29.58;;;17.00;;
40967;SDS011;57377;45.130;6.038;2023-02-28T11:17:00;27.10;;;15.85;;
40967;SDS011;57377;45.130;6.038;2023-02-28T11:19:38;27.58;;;16.08;;
40967;SDS011;57377;45.130;6.038;2023-02-28T11:22:09;28.05;;;16.55;;
40967;SDS011;57377;45.130;6.038;2023-02-28T11:24:45;30.70;;;16.53;;
40967;SDS011;57377;45.130;6.038;2023-02-28T11:28:23;35.67;;;17.10;;
40967;SDS011;57377;45.130;6.038;2023-02-28T11:32:53;35.88;;;15.77;;
40967;SDS011;57377;45.130;6.038;2023-02-28T11:35:29;31.35;;;18.27;;
40967;SDS011;57377;45.130;6.038;2023-02-28T11:38:04;34.92;;;16.48;;
40967;SDS011;57377;45.130;6.038;2023-02-28T11:54:29;39.33;;;15.93;;
40967;SDS011;57377;45.130;6.038;2023-02-28T11:57:21;30.30;;;16.90;;
40967;SDS011;57377;45.130;6.038;2023-02-28T12:00:03;26.52;;;16.02;;
40967;SDS011;57377;45.130;6.038;2023-02-28T12:02:35;26.35;;;15.50;;
40967;SDS011;57377;45.130;6.038;2023-02-28T12:05:24;32.67;;;15.07;;
40967;SDS011;57377;45.130;6.038;2023-02-28T12:13:53;29.30;;;16.13;;
40967;SDS011;57377;45.130;6.038;2023-02-28T12:19:26;27.73;;;16.23;;
40967;SDS011;57377;45.130;6.038;2023-02-28T12:29:46;28.33;;;15.00;;
40967;SDS011;57377;45.130;6.038;2023-02-28T12:32:23;31.10;;;16.83;;
40967;SDS011;57377;45.130;6.038;2023-02-28T12:34:55;28.48;;;16.48;;
40967;SDS011;57377;45.130;6.038;2023-02-28T12:37:39;32.97;;;16.60;;
40967;SDS011;57377;45.130;6.038;2023-02-28T12:42:41;27.08;;;14.95;;
40967;SDS011;57377;45.130;6.038;2023-02-28T12:45:27;24.73;;;14.55;;
40967;SDS011;57377;45.130;6.038;2023-02-28T12:48:06;29.88;;;14.90;;
40967;SDS011;57377;45.130;6.038;2023-02-28T12:50:35;28.23;;;16.13;;
40967;SDS011;57377;45.130;6.038;2023-02-28T12:53:18;27.58;;;15.57;;
40967;SDS011;57377;45.130;6.038;2023-02-28T12:58:35;28.77;;;16.63;;
40967;SDS011;57377;45.130;6.038;2023-02-28T13:03:50;29.52;;;16.40;;
40967;SDS011;57377;45.130;6.038;2023-02-28T13:09:25;28.65;;;15.55;;
40967;SDS011;57377;45.130;6.038;2023-02-28T13:11:53;29.60;;;14.95;;
40967;SDS011;57377;45.130;6.038;2023-02-28T13:19:34;24.58;;;14.25;;
40967;SDS011;57377;45.130;6.038;2023-02-28T13:22:03;24.67;;;15.82;;
40967;SDS011;57377;45.130;6.038;2023-02-28T13:24:40;32.63;;;17.05;;
40967;SDS011;57377;45.130;6.038;2023-02-28T13:29:42;26.50;;;15.95;;
40967;SDS011;57377;45.130;6.038;2023-02-28T13:35:12;31.63;;;17.33;;
40967;SDS011;57377;45.130;6.038;2023-02-28T13:37:32;26.80;;;16.63;;
40967;SDS011;57377;45.130;6.038;2023-02-28T13:47:28;26.98;;;15.63;;
40967;SDS011;57377;45.130;6.038;2023-02-28T13:50:01;31.15;;;17.63;;
40967;SDS011;57377;45.130;6.038;2023-02-28T13:52:46;30.05;;;17.27;;
40967;SDS011;57377;45.130;6.038;2023-02-28T13:55:24;29.27;;;16.73;;
40967;SDS011;57377;45.130;6.038;2023-02-28T14:06:07;31.27;;;17.83;;
40967;SDS011;57377;45.130;6.038;2023-02-28T14:08:54;29.77;;;16.48;;
40967;SDS011;57377;45.130;6.038;2023-02-28T14:11:28;26.98;;;15.23;;
40967;SDS011;57377;45.130;6.038;2023-02-28T14:13:56;27.48;;;16.80;;
40967;SDS011;57377;45.130;6.038;2023-02-28T14:16:23;30.10;;;16.83;;
40967;SDS011;57377;45.130;6.038;2023-02-28T14:18:58;31.98;;;16.85;;
40967;SDS011;57377;45.130;6.038;2023-02-28T14:21:32;32.42;;;17.75;;
40967;SDS011;57377;45.130;6.038;2023-02-28T14:27:00;31.17;;;17.58;;
40967;SDS011;57377;45.130;6.038;2023-02-28T14:37:51;30.40;;;17.75;;
40967;SDS011;57377;45.130;6.038;2023-02-28T14:40:36;25.85;;;16.40;;
40967;SDS011;57377;45.130;6.038;2023-02-28T14:43:04;29.98;;;17.08;;
40967;SDS011;57377;45.130;6.038;2023-02-28T14:45:32;34.60;;;18.13;;
40967;SDS011;57377;45.130;6.038;2023-02-28T14:47:59;33.42;;;18.42;;
40967;SDS011;57377;45.130;6.038;2023-02-28T14:50:30;31.80;;;17.63;;
40967;SDS011;57377;45.130;6.038;2023-02-28T14:52:59;30.90;;;17.25;;
40967;SDS011;57377;45.130;6.038;2023-02-28T14:55:28;32.78;;;17.60;;
40967;SDS011;57377;45.130;6.038;2023-02-28T14:57:57;31.95;;;17.10;;
40967;SDS011;57377;45.130;6.038;2023-02-28T15:00:27;34.13;;;19.27;;
40967;SDS011;57377;45.130;6.038;2023-02-28T15:03:19;30.98;;;17.90;;
40967;SDS011;57377;45.130;6.038;2023-02-28T15:05:58;33.42;;;18.10;;
40967;SDS011;57377;45.130;6.038;2023-02-28T15:08:29;30.65;;;18.63;;
40967;SDS011;57377;45.130;6.038;2023-02-28T15:11:00;30.65;;;17.75;;
40967;SDS011;57377;45.130;6.038;2023-02-28T15:13:39;30.17;;;18.40;;
40967;SDS011;57377;45.130;6.038;2023-02-28T15:16:25;32.72;;;19.77;;
40967;SDS011;57377;45.130;6.038;2023-02-28T15:19:14;34.35;;;19.58;;
40967;SDS011;57377;45.130;6.038;2023-02-28T15:21:46;40.15;;;19.52;;
40967;SDS011;57377;45.130;6.038;2023-02-28T15:24:16;39.83;;;19.75;;
40967;SDS011;57377;45.130;6.038;2023-02-28T15:26:57;33.85;;;19.20;;
40967;SDS011;57377;45.130;6.038;2023-02-28T15:29:25;37.45;;;19.27;;
40967;SDS011;57377;45.130;6.038;2023-02-28T15:36:59;42.75;;;21.35;;
40967;SDS011;57377;45.130;6.038;2023-02-28T15:39:26;34.58;;;19.67;;
40967;SDS011;57377;45.130;6.038;2023-02-28T15:42:12;38.67;;;20.48;;
40967;SDS011;57377;45.130;6.038;2023-02-28T15:44:47;38.10;;;20.48;;
40967;SDS011;57377;45.130;6.038;2023-02-28T15:47:23;42.40;;;19.85;;
40967;SDS011;57377;45.130;6.038;2023-02-28T15:49:52;41.65;;;21.88;;
40967;SDS011;57377;45.130;6.038;2023-02-28T15:52:32;36.83;;;21.13;;
40967;SDS011;57377;45.130;6.038;2023-02-28T15:55:09;37.28;;;20.70;;
40967;SDS011;57377;45.130;6.038;2023-02-28T15:57:38;37.35;;;21.08;;
40967;SDS011;57377;45.130;6.038;2023-02-28T16:00:05;36.85;;;21.30;;
40967;SDS011;57377;45.130;6.038;2023-02-28T16:02:36;42.30;;;22.23;;
40967;SDS011;57377;45.130;6.038;2023-02-28T16:07:31;45.80;;;21.10;;
40967;SDS011;57377;45.130;6.038;2023-02-28T16:09:57;38.92;;;20.60;;
40967;SDS011;57377;45.130;6.038;2023-02-28T16:12:25;39.42;;;20.70;;
40967;SDS011;57377;45.130;6.038;2023-02-28T16:14:53;39.08;;;21.15;;
40967;SDS011;57377;45.130;6.038;2023-02-28T16:17:21;36.70;;;19.15;;
40967;SDS011;57377;45.130;6.038;2023-02-28T16:19:48;37.70;;;20.60;;
40967;SDS011;57377;45.130;6.038;2023-02-28T16:22:13;39.28;;;21.25;;
40967;SDS011;57377;45.130;6.038;2023-02-28T16:24:40;38.30;;;20.15;;
40967;SDS011;57377;45.130;6.038;2023-02-28T16:27:06;42.03;;;20.60;;
40967;SDS011;57377;45.130;6.038;2023-02-28T16:29:39;36.40;;;20.38;;
40967;SDS011;57377;45.130;6.038;2023-02-28T16:32:05;41.85;;;22.40;;
40967;SDS011;57377;45.130;6.038;2023-02-28T16:34:31;40.72;;;21.15;;
40967;SDS011;57377;45.130;6.038;2023-02-28T16:36:56;38.15;;;21.70;;
40967;SDS011;57377;45.130;6.038;2023-02-28T16:39:23;47.07;;;20.97;;
40967;SDS011;57377;45.130;6.038;2023-02-28T16:41:48;43.42;;;23.02;;
40967;SDS011;57377;45.130;6.038;2023-02-28T16:47:13;45.05;;;21.42;;
40967;SDS011;57377;45.130;6.038;2023-02-28T16:49:38;41.45;;;21.33;;
40967;SDS011;57377;45.130;6.038;2023-02-28T16:52:07;42.97;;;21.85;;
40967;SDS011;57377;45.130;6.038;2023-02-28T16:54:33;36.90;;;20.73;;
40967;SDS011;57377;45.130;6.038;2023-02-28T16:56:58;37.65;;;19.75;;
40967;SDS011;57377;45.130;6.038;2023-02-28T16:59:24;37.97;;;20.13;;
40967;SDS011;57377;45.130;6.038;2023-02-28T17:04:17;38.60;;;19.45;;
40967;SDS011;57377;45.130;6.038;2023-02-28T17:06:43;43.38;;;21.35;;
40967;SDS011;57377;45.130;6.038;2023-02-28T17:09:14;41.35;;;19.85;;
40967;SDS011;57377;45.130;6.038;2023-02-28T17:11:45;39.33;;;20.85;;
40967;SDS011;57377;45.130;6.038;2023-02-28T17:14:11;42.00;;;20.30;;
40967;SDS011;57377;45.130;6.038;2023-02-28T17:16:37;44.25;;;21.75;;
40967;SDS011;57377;45.130;6.038;2023-02-28T17:19:06;37.33;;;20.30;;
40967;SDS011;57377;45.130;6.038;2023-02-28T17:21:32;45.85;;;20.60;;
40967;SDS011;57377;45.130;6.038;2023-02-28T17:23:58;41.42;;;20.35;;
40967;SDS011;57377;45.130;6.038;2023-02-28T17:26:24;42.47;;;20.90;;
40967;SDS011;57377;45.130;6.038;2023-02-28T17:28:50;45.75;;;19.67;;
40967;SDS011;57377;45.130;6.038;2023-02-28T17:31:17;39.30;;;20.50;;
40967;SDS011;57377;45.130;6.038;2023-02-28T17:33:43;39.40;;;20.40;;
40967;SDS011;57377;45.130;6.038;2023-02-28T17:36:16;44.22;;;20.33;;
40967;SDS011;57377;45.130;6.038;2023-02-28T17:38:46;38.92;;;20.00;;
40967;SDS011;57377;45.130;6.038;2023-02-28T17:41:12;38.00;;;20.70;;
40967;SDS011;57377;45.130;6.038;2023-02-28T17:43:38;48.70;;;23.17;;
40967;SDS011;57377;45.130;6.038;2023-02-28T17:46:03;40.22;;;20.85;;
40967;SDS011;57377;45.130;6.038;2023-02-28T17:48:32;41.90;;;22.00;;
40967;SDS011;57377;45.130;6.038;2023-02-28T17:50:58;43.83;;;21.65;;
40967;SDS011;57377;45.130;6.038;2023-02-28T17:53:24;40.38;;;22.83;;
40967;SDS011;57377;45.130;6.038;2023-02-28T17:55:49;43.35;;;21.20;;
40967;SDS011;57377;45.130;6.038;2023-02-28T17:58:15;55.08;;;25.85;;